Acarigua, Venezuela
Current Conditions -  °F | °C
As of 11:00 PM on Saturday 25 Oct 2014 (Local Time) from SVBM Reporting Station
Few Clouds Few Clouds  
Wind Chill: 72°   Ceiling: Unl
Heat Index: 72°   Visibility: 6mi
Dew Point: 68°   Wind: 7mph
Humidity: 88%   Direction: 340°NNW
Pressure: 29.91"   Gusts: NA
Location:  9.58°N, 69.2°W
Report Text: SVBM 260300Z 34006KT 9999 FEW016 22/20 Q1013
Loading
Personal Weather Stations






























Interactive Weather Map
Tropical Storm Tracking
New forecast layout! Learn more

10-Day Weather Forecast

Advertisements
Track Severe Weather on mobile